createdAt,value
2022-09-22T00:01:13.377Z,9.31
2022-09-22T00:04:29.931Z,9.23
2022-09-22T00:07:45.879Z,9.22
2022-09-22T00:11:17.970Z,9.18
2022-09-22T00:14:35.517Z,9.09
2022-09-22T00:17:52.384Z,9.05
2022-09-22T00:21:13.434Z,9.03
2022-09-22T00:24:32.032Z,9.04
2022-09-22T00:27:49.928Z,9.06
2022-09-22T00:31:08.051Z,9.05
2022-09-22T00:34:27.259Z,9.05
2022-09-22T00:37:43.442Z,9.09
2022-09-22T00:41:01.629Z,9.14
2022-09-22T00:44:44.634Z,9.09
2022-09-22T00:48:00.774Z,9.06
2022-09-22T00:51:21.180Z,8.99
2022-09-22T00:54:37.520Z,8.99
2022-09-22T00:57:55.596Z,8.99
2022-09-22T01:01:12.526Z,9.04
2022-09-22T01:04:28.813Z,9.11
2022-09-22T01:07:45.505Z,9.14
2022-09-22T01:11:02.644Z,9.15
2022-09-22T01:14:24.643Z,9.17
2022-09-22T01:17:47.378Z,9.20
2022-09-22T01:21:29.567Z,9.26
2022-09-22T01:25:07.011Z,9.27
2022-09-22T01:28:59.866Z,9.28
2022-09-22T01:32:21.989Z,9.31
2022-09-22T01:35:45.397Z,9.29
2022-09-22T01:39:11.045Z,9.26
2022-09-22T01:42:32.541Z,9.28
2022-09-22T01:45:51.957Z,9.29
2022-09-22T01:49:12.105Z,9.28
2022-09-22T01:52:32.874Z,9.30
2022-09-22T01:55:51.998Z,9.26
2022-09-22T01:59:12.006Z,9.27
2022-09-22T02:02:33.195Z,9.24
2022-09-22T02:05:54.768Z,9.23
2022-09-22T02:09:15.071Z,9.19
2022-09-22T02:12:31.262Z,9.14
2022-09-22T02:16:05.566Z,9.13
2022-09-22T02:19:25.971Z,9.05
2022-09-22T02:22:42.376Z,9.00
2022-09-22T02:25:59.559Z,9.05
2022-09-22T02:29:18.584Z,8.96
2022-09-22T02:32:37.093Z,8.99
2022-09-22T02:35:58.508Z,8.98
2022-09-22T02:39:20.174Z,8.97
2022-09-22T02:42:40.855Z,8.95
2022-09-22T02:46:01.108Z,8.96
2022-09-22T02:49:21.783Z,8.96
2022-09-22T02:52:37.726Z,8.97
2022-09-22T02:55:54.803Z,8.95
2022-09-22T02:59:11.507Z,8.92
2022-09-22T03:02:27.758Z,8.90
2022-09-22T03:05:44.340Z,8.84
2022-09-22T03:09:00.573Z,8.80
2022-09-22T03:12:17.032Z,8.81
2022-09-22T03:15:33.431Z,8.78
2022-09-22T03:18:49.467Z,8.78
2022-09-22T03:22:05.423Z,8.81
2022-09-22T03:25:21.768Z,8.82
2022-09-22T03:28:37.714Z,8.86
2022-09-22T03:31:53.930Z,8.86
2022-09-22T03:35:10.542Z,8.88
2022-09-22T03:38:26.437Z,8.92
2022-09-22T03:41:42.744Z,8.98
2022-09-22T03:44:59.435Z,9.03
2022-09-22T03:48:15.873Z,8.96
2022-09-22T03:51:35.158Z,9.00
2022-09-22T03:54:48.864Z,9.04
2022-09-22T03:58:04.637Z,9.06
2022-09-22T04:01:21.326Z,9.05
2022-09-22T04:04:38.451Z,9.05
2022-09-22T04:07:54.602Z,9.10
2022-09-22T04:11:11.980Z,9.10
2022-09-22T04:14:28.311Z,9.14
2022-09-22T04:17:46.526Z,9.17
2022-09-22T04:21:05.867Z,9.16
2022-09-22T04:24:20.971Z,9.17
2022-09-22T04:27:40.539Z,9.15
2022-09-22T04:31:02.614Z,9.14
2022-09-22T04:34:18.967Z,9.10
2022-09-22T04:37:36.283Z,9.12
2022-09-22T04:40:52.440Z,9.14
2022-09-22T04:44:23.809Z,9.15
2022-09-22T04:47:41.002Z,9.16
2022-09-22T04:50:56.981Z,9.18
2022-09-22T04:54:16.606Z,9.18
2022-09-22T04:57:32.584Z,9.19
2022-09-22T05:00:48.799Z,9.19
2022-09-22T05:04:04.766Z,9.20
2022-09-22T05:07:20.861Z,9.25
2022-09-22T05:10:38.097Z,9.24
2022-09-22T05:13:55.884Z,9.26
2022-09-22T05:17:12.109Z,9.26
2022-09-22T05:20:29.118Z,9.28
2022-09-22T05:23:45.636Z,9.29
2022-09-22T05:27:01.741Z,9.25
2022-09-22T05:30:20.126Z,9.27
2022-09-22T05:33:38.075Z,9.27
2022-09-22T05:36:57.250Z,9.21
2022-09-22T05:40:15.933Z,9.15
2022-09-22T05:43:32.410Z,9.16
2022-09-22T05:46:48.564Z,9.16
2022-09-22T05:50:04.764Z,9.18
2022-09-22T05:53:23.344Z,9.21
2022-09-22T05:56:40.775Z,9.22
2022-09-22T05:59:56.797Z,9.22
2022-09-22T06:03:14.109Z,9.21
2022-09-22T06:06:30.320Z,9.28
2022-09-22T06:09:46.486Z,9.30
2022-09-22T06:13:08.852Z,9.34
2022-09-22T06:16:25.547Z,9.33
2022-09-22T06:19:41.675Z,9.33
2022-09-22T06:22:57.819Z,9.37
2022-09-22T06:26:14.116Z,9.44
2022-09-22T06:29:30.898Z,9.46
2022-09-22T06:32:49.269Z,9.46
2022-09-22T06:36:06.860Z,9.48
2022-09-22T06:39:23.187Z,9.53
2022-09-22T06:42:39.287Z,9.54
2022-09-22T06:45:56.515Z,9.61
2022-09-22T06:49:14.689Z,9.68
2022-09-22T06:52:30.902Z,9.65
2022-09-22T06:55:52.497Z,9.60
2022-09-22T06:59:11.054Z,9.57
2022-09-22T07:02:28.550Z,9.65
2022-09-22T07:05:46.598Z,9.73
2022-09-22T07:09:02.840Z,9.72
2022-09-22T07:12:20.947Z,9.62
2022-09-22T07:15:46.067Z,9.66
2022-09-22T07:19:05.717Z,9.67
2022-09-22T07:22:22.613Z,9.69
2022-09-22T07:25:41.176Z,9.73
2022-09-22T07:28:59.924Z,9.72
2022-09-22T07:32:18.726Z,9.73
2022-09-22T07:35:38.764Z,9.92
2022-09-22T07:38:58.205Z,10.29
2022-09-22T07:42:14.922Z,10.56
2022-09-22T07:45:30.975Z,10.68
2022-09-22T07:48:49.656Z,10.84
2022-09-22T07:52:06.140Z,10.87
2022-09-22T07:55:23.049Z,10.88
2022-09-22T07:58:40.723Z,10.84
2022-09-22T08:01:58.914Z,10.90
2022-09-22T08:05:17.351Z,10.87
2022-09-22T08:08:35.349Z,10.89
2022-09-22T08:11:54.844Z,10.99
2022-09-22T08:15:11.841Z,10.99
2022-09-22T08:18:28.210Z,10.97
2022-09-22T08:21:49.664Z,10.98
2022-09-22T08:25:06.730Z,10.99
2022-09-22T08:28:22.721Z,11.06
2022-09-22T08:31:41.952Z,11.10
2022-09-22T08:34:58.870Z,11.19
2022-09-22T08:38:15.197Z,11.29
2022-09-22T08:41:38.997Z,11.34
2022-09-22T08:45:04.935Z,11.33
2022-09-22T08:48:40.450Z,11.40
2022-09-22T08:52:02.102Z,11.55
2022-09-22T08:55:23.814Z,11.66
2022-09-22T08:58:57.095Z,11.79
2022-09-22T09:02:55.859Z,11.88
2022-09-22T09:06:18.962Z,12.00
2022-09-22T09:09:51.157Z,12.24
2022-09-22T09:13:23.066Z,12.39
2022-09-22T09:16:52.450Z,12.89
2022-09-22T09:20:19.760Z,13.35
2022-09-22T09:27:05.307Z,14.18
2022-09-22T09:30:27.365Z,14.48
2022-09-22T09:33:52.866Z,14.65
2022-09-22T09:37:18.747Z,14.97
2022-09-22T09:45:29.759Z,15.44
2022-09-22T09:49:15.671Z,15.46
2022-09-22T09:52:34.287Z,15.79
2022-09-22T09:55:51.422Z,15.43
2022-09-22T09:59:24.672Z,15.67
2022-09-22T10:02:45.119Z,15.22
2022-09-22T10:06:09.859Z,15.07
2022-09-22T10:09:36.374Z,14.80
2022-09-22T10:12:52.504Z,14.52
2022-09-22T10:16:36.965Z,14.33
2022-09-22T10:19:53.107Z,14.13
2022-09-22T10:23:27.935Z,13.97
2022-09-22T10:26:44.108Z,13.67
2022-09-22T10:30:28.400Z,13.36
2022-09-22T10:33:46.219Z,13.10
2022-09-22T10:37:02.901Z,13.06
2022-09-22T10:40:24.421Z,13.18
2022-09-22T10:43:55.830Z,13.38
2022-09-22T10:47:33.155Z,13.47
2022-09-22T10:51:01.410Z,14.05
2022-09-22T10:54:36.641Z,13.99
2022-09-22T10:58:13.845Z,13.89
2022-09-22T11:01:48.381Z,13.77
2022-09-22T11:05:19.550Z,13.67
2022-09-22T11:08:52.363Z,13.64
2022-09-22T11:12:24.343Z,13.57
2022-09-22T11:15:55.141Z,13.54
2022-09-22T11:19:49.567Z,13.15
2022-09-22T11:24:03.054Z,12.66
2022-09-22T11:27:25.075Z,12.25
2022-09-22T11:30:47.998Z,12.15
2022-09-22T11:34:46.366Z,11.87
2022-09-22T11:38:16.667Z,11.75
2022-09-22T11:41:44.484Z,11.59
2022-09-22T11:45:10.903Z,11.61
2022-09-22T11:48:40.745Z,11.54
2022-09-22T11:52:17.298Z,11.69
2022-09-22T11:55:45.134Z,11.79
2022-09-22T11:59:09.532Z,11.92
2022-09-22T12:02:37.946Z,12.13
2022-09-22T12:05:59.184Z,12.35
2022-09-22T12:09:40.865Z,12.39
2022-09-22T12:13:00.448Z,12.39
2022-09-22T12:16:23.265Z,12.38
2022-09-22T12:19:49.358Z,12.30
2022-09-22T12:23:36.775Z,12.27
2022-09-22T12:26:56.351Z,12.25
2022-09-22T12:30:27.184Z,12.24
2022-09-22T12:33:57.391Z,12.23
2022-09-22T12:37:36.550Z,12.32
2022-09-22T12:40:58.514Z,12.42
2022-09-22T12:44:30.340Z,12.46
2022-09-22T12:48:03.183Z,12.50
2022-09-22T12:51:39.859Z,12.42
2022-09-22T12:54:59.135Z,12.39
2022-09-22T12:58:48.588Z,12.30
2022-09-22T13:02:43.037Z,12.23
2022-09-22T13:06:05.100Z,12.21
2022-09-22T13:09:31.738Z,12.25
2022-09-22T13:12:55.858Z,12.27
2022-09-22T13:16:33.286Z,12.30
2022-09-22T13:20:04.522Z,12.34
2022-09-22T13:23:23.084Z,12.36
2022-09-22T13:26:44.737Z,12.40
2022-09-22T13:30:12.222Z,12.51
2022-09-22T13:33:34.501Z,12.62
2022-09-22T13:36:53.885Z,12.67
2022-09-22T13:40:12.142Z,12.74
2022-09-22T13:43:42.807Z,12.69
2022-09-22T13:47:01.431Z,12.68
2022-09-22T13:50:33.663Z,12.66
2022-09-22T13:53:56.315Z,12.68
2022-09-22T13:57:25.075Z,12.62
2022-09-22T14:01:12.203Z,12.54
2022-09-22T14:04:28.644Z,12.48
2022-09-22T14:08:01.267Z,12.41
2022-09-22T14:11:08.368Z,12.34
2022-09-22T14:14:36.653Z,12.23
2022-09-22T14:18:04.575Z,12.06
2022-09-22T14:21:23.132Z,12.00
2022-09-22T14:24:43.108Z,11.94
2022-09-22T14:28:07.366Z,11.86
2022-09-22T14:31:29.086Z,11.85
2022-09-22T14:34:50.586Z,11.86
2022-09-22T14:38:19.971Z,11.93
2022-09-22T14:41:34.481Z,11.95
2022-09-22T14:44:56.721Z,11.97
2022-09-22T14:48:39.175Z,11.94
2022-09-22T14:51:57.519Z,11.92
2022-09-22T14:55:25.788Z,11.83
2022-09-22T14:58:46.100Z,11.76
2022-09-22T15:02:26.594Z,11.62
2022-09-22T15:05:45.141Z,11.53
2022-09-22T15:09:04.194Z,11.56
2022-09-22T15:12:49.352Z,11.45
2022-09-22T15:16:07.093Z,11.35
2022-09-22T15:19:23.753Z,11.37
2022-09-22T15:22:40.782Z,11.33
2022-09-22T15:25:58.505Z,11.30
2022-09-22T15:29:18.077Z,11.31
2022-09-22T15:32:34.617Z,11.23
2022-09-22T15:36:00.493Z,11.15
2022-09-22T15:39:22.160Z,11.13
2022-09-22T15:42:48.231Z,11.13
2022-09-22T15:45:59.418Z,11.17
2022-09-22T15:49:23.661Z,11.15
2022-09-22T15:52:40.080Z,11.11
2022-09-22T15:55:58.802Z,11.08
2022-09-22T15:59:20.317Z,11.05
2022-09-22T16:02:44.743Z,11.07
2022-09-22T16:06:06.690Z,11.07
2022-09-22T16:09:25.353Z,11.09
2022-09-22T16:12:42.525Z,11.07
2022-09-22T16:16:03.740Z,11.04
2022-09-22T16:19:29.080Z,11.03
2022-09-22T16:22:51.712Z,11.04
2022-09-22T16:26:08.613Z,11.06
2022-09-22T16:29:30.156Z,11.09
2022-09-22T16:32:46.890Z,11.04
2022-09-22T16:36:11.110Z,11.06
2022-09-22T16:39:43.440Z,11.10
2022-09-22T16:43:01.414Z,11.13
2022-09-22T16:46:34.866Z,11.11
2022-09-22T16:49:59.640Z,11.05
2022-09-22T16:53:18.776Z,11.02
2022-09-22T16:56:50.749Z,11.03
2022-09-22T17:00:24.417Z,10.91
2022-09-22T17:03:42.366Z,10.94
2022-09-22T17:06:59.456Z,10.87
2022-09-22T17:10:21.423Z,10.83
2022-09-22T17:13:58.905Z,10.82
2022-09-22T17:17:23.961Z,10.83
2022-09-22T17:20:50.969Z,10.87
2022-09-22T17:24:14.493Z,10.87
2022-09-22T17:27:34.510Z,10.82
2022-09-22T17:31:12.812Z,10.74
2022-09-22T17:34:51.732Z,10.69
2022-09-22T17:38:29.516Z,10.67
2022-09-22T17:41:56.320Z,10.54
2022-09-22T17:45:21.004Z,10.52
2022-09-22T17:48:51.869Z,10.47
2022-09-22T17:52:38.775Z,10.44
2022-09-22T17:56:10.443Z,10.42
2022-09-22T17:59:35.412Z,10.38
2022-09-22T18:03:09.304Z,10.33
2022-09-22T18:06:49.541Z,10.31
2022-09-22T18:10:15.912Z,10.30
2022-09-22T18:13:39.533Z,10.33
2022-09-22T18:17:01.980Z,10.39
2022-09-22T18:20:25.231Z,10.34
2022-09-22T18:23:49.195Z,10.33
2022-09-22T18:27:23.197Z,10.30
2022-09-22T18:31:04.452Z,10.31
2022-09-22T18:34:30.618Z,10.29
2022-09-22T18:38:04.324Z,10.27
2022-09-22T18:41:24.524Z,10.26
2022-09-22T18:44:55.961Z,10.31
2022-09-22T18:48:36.949Z,10.31
2022-09-22T18:52:07.018Z,10.34
2022-09-22T18:55:23.725Z,10.33
2022-09-22T18:58:41.705Z,10.30
2022-09-22T19:02:01.507Z,10.25
2022-09-22T19:05:24.603Z,10.28
2022-09-22T19:08:42.104Z,10.29
2022-09-22T19:12:02.552Z,10.26
2022-09-22T19:15:27.510Z,10.25
2022-09-22T19:18:52.267Z,10.28
2022-09-22T19:22:13.980Z,10.25
2022-09-22T19:25:38.475Z,10.23
2022-09-22T19:29:01.843Z,10.19
2022-09-22T19:32:31.174Z,10.25
2022-09-22T19:36:00.346Z,10.28
2022-09-22T19:39:25.992Z,10.31
2022-09-22T19:42:49.456Z,10.31
2022-09-22T19:46:06.483Z,10.29
2022-09-22T19:49:26.358Z,10.30
2022-09-22T19:52:49.062Z,10.30
2022-09-22T19:56:14.790Z,10.31
2022-09-22T19:59:38.580Z,10.29
2022-09-22T20:03:07.206Z,10.30
2022-09-22T20:06:29.405Z,10.29
2022-09-22T20:09:51.558Z,10.19
2022-09-22T20:13:14.725Z,10.15
2022-09-22T20:16:42.519Z,10.15
2022-09-22T20:19:59.870Z,10.15
2022-09-22T20:23:27.164Z,10.16
2022-09-22T20:26:43.592Z,10.17
2022-09-22T20:30:00.575Z,10.18
2022-09-22T20:33:23.347Z,10.17
2022-09-22T20:36:40.225Z,10.20
2022-09-22T20:39:59.098Z,10.22
2022-09-22T20:43:17.953Z,10.16
2022-09-22T20:46:34.819Z,10.16
2022-09-22T20:49:52.144Z,10.18
2022-09-22T20:53:09.748Z,10.15
2022-09-22T20:56:26.137Z,10.11
2022-09-22T20:59:44.388Z,10.07
2022-09-22T21:03:02.810Z,10.08
2022-09-22T21:06:20.709Z,10.08
2022-09-22T21:09:51.256Z,10.08
2022-09-22T21:13:07.782Z,10.02
2022-09-22T21:16:24.362Z,10.01
2022-09-22T21:19:41.224Z,9.95
2022-09-22T21:22:59.345Z,9.97
2022-09-22T21:26:17.604Z,10.00
2022-09-22T21:29:34.081Z,10.03
2022-09-22T21:32:50.585Z,10.06
2022-09-22T21:36:17.911Z,10.03
2022-09-22T21:39:33.921Z,10.07
2022-09-22T21:42:51.727Z,10.09
2022-09-22T21:46:11.920Z,10.04
2022-09-22T21:49:29.550Z,10.04
2022-09-22T21:52:47.149Z,10.04
2022-09-22T21:56:11.944Z,9.99
2022-09-22T21:59:28.526Z,9.98
2022-09-22T22:02:54.676Z,9.97
2022-09-22T22:06:14.563Z,9.93
2022-09-22T22:09:31.516Z,9.80
2022-09-22T22:12:50.333Z,9.83
2022-09-22T22:16:10.024Z,9.87
2022-09-22T22:19:29.181Z,9.88
2022-09-22T22:22:45.640Z,9.79
2022-09-22T22:26:08.531Z,9.74
2022-09-22T22:29:26.098Z,9.70
2022-09-22T22:32:43.176Z,9.72
2022-09-22T22:36:04.182Z,9.74
2022-09-22T22:39:21.117Z,9.79
2022-09-22T22:42:37.200Z,9.76
2022-09-22T22:45:54.345Z,9.74
2022-09-22T22:49:12.473Z,9.74
2022-09-22T22:52:28.611Z,9.76
2022-09-22T22:55:46.274Z,9.71
2022-09-22T22:59:03.207Z,9.65
2022-09-22T23:02:19.327Z,9.68
2022-09-22T23:05:39.536Z,9.69
2022-09-22T23:08:54.534Z,9.72
2022-09-22T23:12:11.634Z,9.75
2022-09-22T23:15:27.970Z,9.71
2022-09-22T23:18:46.386Z,9.68
2022-09-22T23:22:03.690Z,9.69
2022-09-22T23:25:20.887Z,9.70
2022-09-22T23:28:38.784Z,9.73
2022-09-22T23:31:54.844Z,9.75
2022-09-22T23:35:11.828Z,9.71
2022-09-22T23:38:28.169Z,9.67
2022-09-22T23:41:44.927Z,9.66
2022-09-22T23:45:01.033Z,9.66
2022-09-22T23:48:17.801Z,9.68
2022-09-22T23:51:33.714Z,9.70
2022-09-22T23:54:49.678Z,9.69
2022-09-22T23:58:06.094Z,9.67
